sensor_id;sensor_type;location;lat;lon;timestamp;P1;durP1;ratioP1;P2;durP2;ratioP2
21430;SDS011;10876;49.038;10.608;2023-02-08T00:13:19;5.10;;;3.75;;
21430;SDS011;10876;49.038;10.608;2023-02-08T00:15:46;7.78;;;3.75;;
21430;SDS011;10876;49.038;10.608;2023-02-08T00:18:13;10.30;;;4.82;;
21430;SDS011;10876;49.038;10.608;2023-02-08T00:20:40;8.90;;;4.68;;
21430;SDS011;10876;49.038;10.608;2023-02-08T00:23:07;8.85;;;4.70;;
21430;SDS011;10876;49.038;10.608;2023-02-08T00:25:34;7.53;;;4.45;;
21430;SDS011;10876;49.038;10.608;2023-02-08T00:28:00;8.07;;;4.85;;
21430;SDS011;10876;49.038;10.608;2023-02-08T00:30:29;9.25;;;5.05;;
21430;SDS011;10876;49.038;10.608;2023-02-08T00:32:55;8.43;;;5.25;;
21430;SDS011;10876;49.038;10.608;2023-02-08T00:35:22;7.40;;;4.40;;
21430;SDS011;10876;49.038;10.608;2023-02-08T00:37:49;7.75;;;4.57;;
21430;SDS011;10876;49.038;10.608;2023-02-08T00:40:15;7.88;;;4.05;;
21430;SDS011;10876;49.038;10.608;2023-02-08T00:42:42;7.50;;;4.75;;
21430;SDS011;10876;49.038;10.608;2023-02-08T00:45:09;6.55;;;4.20;;
21430;SDS011;10876;49.038;10.608;2023-02-08T00:47:37;10.68;;;5.28;;
21430;SDS011;10876;49.038;10.608;2023-02-08T00:50:04;9.70;;;4.70;;
21430;SDS011;10876;49.038;10.608;2023-02-08T00:52:31;7.70;;;3.80;;
21430;SDS011;10876;49.038;10.608;2023-02-08T00:54:58;6.88;;;3.90;;
21430;SDS011;10876;49.038;10.608;2023-02-08T00:57:24;5.43;;;3.40;;
21430;SDS011;10876;49.038;10.608;2023-02-08T00:59:51;8.63;;;4.13;;
21430;SDS011;10876;49.038;10.608;2023-02-08T01:02:18;5.95;;;3.90;;
21430;SDS011;10876;49.038;10.608;2023-02-08T01:04:46;6.20;;;3.67;;
21430;SDS011;10876;49.038;10.608;2023-02-08T01:07:12;8.02;;;3.97;;
21430;SDS011;10876;49.038;10.608;2023-02-08T01:09:39;7.50;;;4.43;;
21430;SDS011;10876;49.038;10.608;2023-02-08T01:12:06;9.75;;;4.30;;
21430;SDS011;10876;49.038;10.608;2023-02-08T01:14:33;4.18;;;3.65;;
21430;SDS011;10876;49.038;10.608;2023-02-08T01:17:00;12.52;;;3.13;;
21430;SDS011;10876;49.038;10.608;2023-02-08T01:19:29;5.15;;;3.47;;
21430;SDS011;10876;49.038;10.608;2023-02-08T01:21:57;3.78;;;2.75;;
21430;SDS011;10876;49.038;10.608;2023-02-08T01:24:24;4.53;;;2.85;;
21430;SDS011;10876;49.038;10.608;2023-02-08T01:26:50;7.82;;;4.65;;
21430;SDS011;10876;49.038;10.608;2023-02-08T01:29:17;7.20;;;2.92;;
21430;SDS011;10876;49.038;10.608;2023-02-08T01:31:44;5.57;;;3.50;;
21430;SDS011;10876;49.038;10.608;2023-02-08T01:34:11;6.30;;;3.53;;
21430;SDS011;10876;49.038;10.608;2023-02-08T01:36:38;4.35;;;3.08;;
21430;SDS011;10876;49.038;10.608;2023-02-08T01:39:06;6.32;;;2.55;;
21430;SDS011;10876;49.038;10.608;2023-02-08T01:41:34;4.15;;;3.70;;
21430;SDS011;10876;49.038;10.608;2023-02-08T01:44:03;5.72;;;3.05;;
21430;SDS011;10876;49.038;10.608;2023-02-08T01:46:30;4.75;;;3.20;;
21430;SDS011;10876;49.038;10.608;2023-02-08T01:48:58;4.43;;;3.40;;
21430;SDS011;10876;49.038;10.608;2023-02-08T01:51:27;8.95;;;3.53;;
21430;SDS011;10876;49.038;10.608;2023-02-08T01:53:54;5.55;;;3.15;;
21430;SDS011;10876;49.038;10.608;2023-02-08T01:56:26;6.95;;;4.32;;
21430;SDS011;10876;49.038;10.608;2023-02-08T01:58:54;5.13;;;3.70;;
21430;SDS011;10876;49.038;10.608;2023-02-08T02:01:22;6.70;;;4.20;;
21430;SDS011;10876;49.038;10.608;2023-02-08T02:03:49;8.20;;;3.50;;
21430;SDS011;10876;49.038;10.608;2023-02-08T02:06:16;3.70;;;2.38;;
21430;SDS011;10876;49.038;10.608;2023-02-08T02:08:46;9.25;;;3.75;;
21430;SDS011;10876;49.038;10.608;2023-02-08T02:11:14;7.53;;;4.82;;
21430;SDS011;10876;49.038;10.608;2023-02-08T02:13:43;10.23;;;4.15;;
21430;SDS011;10876;49.038;10.608;2023-02-08T02:16:10;6.45;;;4.00;;
21430;SDS011;10876;49.038;10.608;2023-02-08T02:18:36;5.93;;;3.03;;
21430;SDS011;10876;49.038;10.608;2023-02-08T02:21:08;6.63;;;4.53;;
21430;SDS011;10876;49.038;10.608;2023-02-08T02:23:48;4.18;;;2.55;;
21430;SDS011;10876;49.038;10.608;2023-02-08T02:26:30;5.78;;;3.15;;
21430;SDS011;10876;49.038;10.608;2023-02-08T02:34:30;12.00;;;3.90;;
21430;SDS011;10876;49.038;10.608;2023-02-08T02:37:01;7.53;;;3.47;;
21430;SDS011;10876;49.038;10.608;2023-02-08T02:39:33;3.28;;;2.65;;
21430;SDS011;10876;49.038;10.608;2023-02-08T02:42:04;6.13;;;3.35;;
21430;SDS011;10876;49.038;10.608;2023-02-08T02:44:53;5.03;;;3.55;;
21430;SDS011;10876;49.038;10.608;2023-02-08T02:47:27;5.20;;;3.97;;
21430;SDS011;10876;49.038;10.608;2023-02-08T02:50:00;5.30;;;2.95;;
21430;SDS011;10876;49.038;10.608;2023-02-08T02:52:28;3.28;;;2.97;;
21430;SDS011;10876;49.038;10.608;2023-02-08T02:54:59;8.68;;;4.63;;
21430;SDS011;10876;49.038;10.608;2023-02-08T02:57:29;5.38;;;3.83;;
21430;SDS011;10876;49.038;10.608;2023-02-08T02:59:57;6.57;;;4.15;;
21430;SDS011;10876;49.038;10.608;2023-02-08T03:02:25;9.60;;;3.88;;
21430;SDS011;10876;49.038;10.608;2023-02-08T03:04:52;4.60;;;4.07;;
21430;SDS011;10876;49.038;10.608;2023-02-08T03:10:27;8.98;;;5.60;;
21430;SDS011;10876;49.038;10.608;2023-02-08T03:13:03;6.57;;;2.95;;
21430;SDS011;10876;49.038;10.608;2023-02-08T03:15:36;9.02;;;3.92;;
21430;SDS011;10876;49.038;10.608;2023-02-08T03:18:10;2.85;;;2.55;;
21430;SDS011;10876;49.038;10.608;2023-02-08T03:20:42;5.07;;;3.03;;
21430;SDS011;10876;49.038;10.608;2023-02-08T03:23:14;7.88;;;4.20;;
21430;SDS011;10876;49.038;10.608;2023-02-08T03:25:45;3.88;;;2.88;;
21430;SDS011;10876;49.038;10.608;2023-02-08T03:28:14;4.65;;;3.70;;
21430;SDS011;10876;49.038;10.608;2023-02-08T03:30:46;4.85;;;2.92;;
21430;SDS011;10876;49.038;10.608;2023-02-08T03:33:16;4.95;;;3.13;;
21430;SDS011;10876;49.038;10.608;2023-02-08T03:35:44;7.55;;;4.20;;
21430;SDS011;10876;49.038;10.608;2023-02-08T03:38:15;6.53;;;3.72;;
21430;SDS011;10876;49.038;10.608;2023-02-08T03:40:44;5.45;;;4.15;;
21430;SDS011;10876;49.038;10.608;2023-02-08T03:43:13;5.75;;;3.45;;
21430;SDS011;10876;49.038;10.608;2023-02-08T03:45:42;8.15;;;3.42;;
21430;SDS011;10876;49.038;10.608;2023-02-08T03:48:11;6.63;;;3.45;;
21430;SDS011;10876;49.038;10.608;2023-02-08T03:50:39;5.50;;;3.55;;
21430;SDS011;10876;49.038;10.608;2023-02-08T03:53:06;4.18;;;3.08;;
21430;SDS011;10876;49.038;10.608;2023-02-08T03:55:34;6.15;;;3.78;;
21430;SDS011;10876;49.038;10.608;2023-02-08T03:58:04;5.85;;;3.78;;
21430;SDS011;10876;49.038;10.608;2023-02-08T04:00:33;3.78;;;2.70;;
21430;SDS011;10876;49.038;10.608;2023-02-08T04:03:01;6.85;;;3.13;;
21430;SDS011;10876;49.038;10.608;2023-02-08T04:05:31;13.23;;;4.15;;
21430;SDS011;10876;49.038;10.608;2023-02-08T04:07:58;4.47;;;3.08;;
21430;SDS011;10876;49.038;10.608;2023-02-08T04:10:24;8.48;;;3.28;;
21430;SDS011;10876;49.038;10.608;2023-02-08T04:12:51;5.03;;;3.28;;
21430;SDS011;10876;49.038;10.608;2023-02-08T04:15:19;4.07;;;3.25;;
21430;SDS011;10876;49.038;10.608;2023-02-08T04:17:46;7.13;;;3.67;;
21430;SDS011;10876;49.038;10.608;2023-02-08T04:20:12;6.35;;;2.80;;
21430;SDS011;10876;49.038;10.608;2023-02-08T04:22:39;3.20;;;2.67;;
21430;SDS011;10876;49.038;10.608;2023-02-08T04:25:06;5.70;;;4.03;;
21430;SDS011;10876;49.038;10.608;2023-02-08T04:27:33;11.80;;;5.07;;
21430;SDS011;10876;49.038;10.608;2023-02-08T04:29:59;11.80;;;4.78;;
21430;SDS011;10876;49.038;10.608;2023-02-08T04:32:27;8.65;;;4.35;;
21430;SDS011;10876;49.038;10.608;2023-02-08T04:34:54;13.68;;;4.43;;
21430;SDS011;10876;49.038;10.608;2023-02-08T04:37:21;8.35;;;4.53;;
21430;SDS011;10876;49.038;10.608;2023-02-08T04:39:48;3.85;;;3.13;;
21430;SDS011;10876;49.038;10.608;2023-02-08T04:42:14;9.45;;;4.55;;
21430;SDS011;10876;49.038;10.608;2023-02-08T04:44:41;3.42;;;2.95;;
21430;SDS011;10876;49.038;10.608;2023-02-08T04:47:08;6.63;;;3.80;;
21430;SDS011;10876;49.038;10.608;2023-02-08T04:49:36;8.40;;;3.83;;
21430;SDS011;10876;49.038;10.608;2023-02-08T04:52:03;4.93;;;3.72;;
21430;SDS011;10876;49.038;10.608;2023-02-08T04:54:29;3.65;;;2.65;;
21430;SDS011;10876;49.038;10.608;2023-02-08T04:56:56;8.63;;;3.70;;
21430;SDS011;10876;49.038;10.608;2023-02-08T04:59:23;3.63;;;2.80;;
21430;SDS011;10876;49.038;10.608;2023-02-08T05:01:50;4.85;;;3.22;;
21430;SDS011;10876;49.038;10.608;2023-02-08T05:04:16;3.28;;;2.53;;
21430;SDS011;10876;49.038;10.608;2023-02-08T05:06:45;8.73;;;2.75;;
21430;SDS011;10876;49.038;10.608;2023-02-08T05:09:11;7.32;;;4.25;;
21430;SDS011;10876;49.038;10.608;2023-02-08T05:11:38;6.20;;;4.15;;
21430;SDS011;10876;49.038;10.608;2023-02-08T05:14:06;7.03;;;4.03;;
21430;SDS011;10876;49.038;10.608;2023-02-08T05:16:33;5.88;;;4.82;;
21430;SDS011;10876;49.038;10.608;2023-02-08T05:18:59;7.60;;;3.63;;
21430;SDS011;10876;49.038;10.608;2023-02-08T05:21:26;7.68;;;4.63;;
21430;SDS011;10876;49.038;10.608;2023-02-08T05:23:54;7.00;;;4.80;;
21430;SDS011;10876;49.038;10.608;2023-02-08T05:26:21;12.68;;;7.65;;
21430;SDS011;10876;49.038;10.608;2023-02-08T05:28:47;7.60;;;6.82;;
21430;SDS011;10876;49.038;10.608;2023-02-08T05:31:15;10.75;;;6.63;;
21430;SDS011;10876;49.038;10.608;2023-02-08T05:33:42;9.82;;;6.97;;
21430;SDS011;10876;49.038;10.608;2023-02-08T05:36:09;11.52;;;7.03;;
21430;SDS011;10876;49.038;10.608;2023-02-08T05:38:36;9.05;;;5.38;;
21430;SDS011;10876;49.038;10.608;2023-02-08T05:41:04;13.25;;;7.55;;
21430;SDS011;10876;49.038;10.608;2023-02-08T05:43:31;13.73;;;7.15;;
21430;SDS011;10876;49.038;10.608;2023-02-08T05:45:57;6.70;;;4.85;;
21430;SDS011;10876;49.038;10.608;2023-02-08T05:48:24;7.85;;;4.72;;
21430;SDS011;10876;49.038;10.608;2023-02-08T05:50:51;11.45;;;5.20;;
21430;SDS011;10876;49.038;10.608;2023-02-08T05:53:17;14.90;;;5.50;;
21430;SDS011;10876;49.038;10.608;2023-02-08T05:55:44;7.20;;;4.47;;
21430;SDS011;10876;49.038;10.608;2023-02-08T05:58:14;9.52;;;5.32;;
21430;SDS011;10876;49.038;10.608;2023-02-08T06:00:41;8.60;;;4.78;;
21430;SDS011;10876;49.038;10.608;2023-02-08T06:03:07;7.85;;;5.47;;
21430;SDS011;10876;49.038;10.608;2023-02-08T06:05:35;10.07;;;5.60;;
21430;SDS011;10876;49.038;10.608;2023-02-08T06:08:02;6.13;;;5.25;;
21430;SDS011;10876;49.038;10.608;2023-02-08T06:10:29;9.48;;;4.32;;
21430;SDS011;10876;49.038;10.608;2023-02-08T06:12:56;12.25;;;4.18;;
21430;SDS011;10876;49.038;10.608;2023-02-08T06:15:24;8.40;;;4.53;;
21430;SDS011;10876;49.038;10.608;2023-02-08T06:17:51;11.05;;;4.82;;
21430;SDS011;10876;49.038;10.608;2023-02-08T06:20:18;11.32;;;5.20;;
21430;SDS011;10876;49.038;10.608;2023-02-08T06:22:45;10.20;;;4.85;;
21430;SDS011;10876;49.038;10.608;2023-02-08T06:25:11;10.02;;;6.13;;
21430;SDS011;10876;49.038;10.608;2023-02-08T06:27:38;10.85;;;5.18;;
21430;SDS011;10876;49.038;10.608;2023-02-08T06:30:05;11.25;;;4.72;;
21430;SDS011;10876;49.038;10.608;2023-02-08T06:32:33;8.38;;;4.78;;
21430;SDS011;10876;49.038;10.608;2023-02-08T06:35:00;11.00;;;4.90;;
21430;SDS011;10876;49.038;10.608;2023-02-08T06:37:27;8.30;;;5.05;;
21430;SDS011;10876;49.038;10.608;2023-02-08T06:39:53;13.40;;;5.85;;
21430;SDS011;10876;49.038;10.608;2023-02-08T06:42:20;11.63;;;6.93;;
21430;SDS011;10876;49.038;10.608;2023-02-08T06:44:47;22.23;;;10.52;;
21430;SDS011;10876;49.038;10.608;2023-02-08T06:47:14;31.80;;;11.82;;
21430;SDS011;10876;49.038;10.608;2023-02-08T06:52:32;20.40;;;9.15;;
21430;SDS011;10876;49.038;10.608;2023-02-08T06:54:58;17.02;;;6.47;;
21430;SDS011;10876;49.038;10.608;2023-02-08T06:57:25;16.92;;;7.82;;
21430;SDS011;10876;49.038;10.608;2023-02-08T06:59:52;13.07;;;5.93;;
21430;SDS011;10876;49.038;10.608;2023-02-08T07:02:19;6.40;;;4.80;;
21430;SDS011;10876;49.038;10.608;2023-02-08T07:04:46;8.63;;;5.40;;
21430;SDS011;10876;49.038;10.608;2023-02-08T07:07:12;12.43;;;5.03;;
21430;SDS011;10876;49.038;10.608;2023-02-08T07:09:41;12.57;;;5.60;;
21430;SDS011;10876;49.038;10.608;2023-02-08T07:12:08;10.55;;;6.03;;
21430;SDS011;10876;49.038;10.608;2023-02-08T07:14:35;12.23;;;5.00;;
21430;SDS011;10876;49.038;10.608;2023-02-08T07:17:02;15.77;;;7.18;;
21430;SDS011;10876;49.038;10.608;2023-02-08T07:19:29;10.95;;;6.30;;
21430;SDS011;10876;49.038;10.608;2023-02-08T07:21:56;12.45;;;5.80;;
21430;SDS011;10876;49.038;10.608;2023-02-08T07:24:27;18.00;;;6.72;;
21430;SDS011;10876;49.038;10.608;2023-02-08T07:26:55;12.60;;;5.90;;
21430;SDS011;10876;49.038;10.608;2023-02-08T07:29:22;13.40;;;6.35;;
21430;SDS011;10876;49.038;10.608;2023-02-08T07:31:48;12.80;;;5.68;;
21430;SDS011;10876;49.038;10.608;2023-02-08T07:34:15;11.60;;;5.90;;
21430;SDS011;10876;49.038;10.608;2023-02-08T07:36:46;12.40;;;5.90;;
21430;SDS011;10876;49.038;10.608;2023-02-08T07:39:12;13.70;;;6.55;;
21430;SDS011;10876;49.038;10.608;2023-02-08T07:41:39;17.17;;;7.50;;
21430;SDS011;10876;49.038;10.608;2023-02-08T07:44:07;20.48;;;7.45;;
21430;SDS011;10876;49.038;10.608;2023-02-08T07:46:34;17.13;;;7.65;;
21430;SDS011;10876;49.038;10.608;2023-02-08T07:49:00;18.08;;;8.23;;
21430;SDS011;10876;49.038;10.608;2023-02-08T07:51:27;15.30;;;8.65;;
21430;SDS011;10876;49.038;10.608;2023-02-08T07:53:53;25.00;;;8.90;;
21430;SDS011;10876;49.038;10.608;2023-02-08T07:56:20;17.98;;;8.02;;
21430;SDS011;10876;49.038;10.608;2023-02-08T07:58:47;24.20;;;10.63;;
21430;SDS011;10876;49.038;10.608;2023-02-08T08:01:15;17.27;;;9.10;;
21430;SDS011;10876;49.038;10.608;2023-02-08T08:03:42;13.02;;;7.00;;
21430;SDS011;10876;49.038;10.608;2023-02-08T08:06:08;23.83;;;10.38;;
21430;SDS011;10876;49.038;10.608;2023-02-08T08:08:35;20.42;;;10.20;;
21430;SDS011;10876;49.038;10.608;2023-02-08T08:11:02;18.60;;;9.68;;
21430;SDS011;10876;49.038;10.608;2023-02-08T08:13:28;15.77;;;8.55;;
21430;SDS011;10876;49.038;10.608;2023-02-08T08:15:55;21.77;;;8.70;;
21430;SDS011;10876;49.038;10.608;2023-02-08T08:18:23;22.30;;;10.05;;
21430;SDS011;10876;49.038;10.608;2023-02-08T08:20:50;20.88;;;9.57;;
21430;SDS011;10876;49.038;10.608;2023-02-08T08:23:17;16.23;;;8.57;;
21430;SDS011;10876;49.038;10.608;2023-02-08T08:25:44;22.65;;;9.30;;
21430;SDS011;10876;49.038;10.608;2023-02-08T08:28:11;22.45;;;10.65;;
21430;SDS011;10876;49.038;10.608;2023-02-08T08:30:37;20.08;;;9.35;;
21430;SDS011;10876;49.038;10.608;2023-02-08T08:33:07;17.27;;;8.10;;
21430;SDS011;10876;49.038;10.608;2023-02-08T08:35:35;22.20;;;9.75;;
21430;SDS011;10876;49.038;10.608;2023-02-08T08:38:01;21.00;;;9.48;;
21430;SDS011;10876;49.038;10.608;2023-02-08T08:40:28;21.15;;;10.10;;
21430;SDS011;10876;49.038;10.608;2023-02-08T08:42:55;27.13;;;10.77;;
21430;SDS011;10876;49.038;10.608;2023-02-08T08:45:22;27.02;;;10.48;;
21430;SDS011;10876;49.038;10.608;2023-02-08T08:47:48;20.20;;;8.98;;
21430;SDS011;10876;49.038;10.608;2023-02-08T08:50:15;21.58;;;9.15;;
21430;SDS011;10876;49.038;10.608;2023-02-08T08:52:43;19.92;;;8.10;;
21430;SDS011;10876;49.038;10.608;2023-02-08T08:55:09;18.63;;;8.20;;
21430;SDS011;10876;49.038;10.608;2023-02-08T08:57:36;22.98;;;9.57;;
21430;SDS011;10876;49.038;10.608;2023-02-08T09:00:03;20.58;;;8.98;;
21430;SDS011;10876;49.038;10.608;2023-02-08T09:02:30;20.35;;;8.77;;
21430;SDS011;10876;49.038;10.608;2023-02-08T09:04:56;23.55;;;9.15;;
21430;SDS011;10876;49.038;10.608;2023-02-08T09:07:24;17.55;;;8.85;;
21430;SDS011;10876;49.038;10.608;2023-02-08T09:09:52;18.92;;;9.25;;
21430;SDS011;10876;49.038;10.608;2023-02-08T09:12:19;17.55;;;8.45;;
21430;SDS011;10876;49.038;10.608;2023-02-08T09:14:45;18.85;;;8.85;;
21430;SDS011;10876;49.038;10.608;2023-02-08T09:17:12;19.95;;;8.93;;
21430;SDS011;10876;49.038;10.608;2023-02-08T09:19:39;22.60;;;10.25;;
21430;SDS011;10876;49.038;10.608;2023-02-08T09:22:06;21.52;;;9.48;;
21430;SDS011;10876;49.038;10.608;2023-02-08T09:24:33;20.38;;;8.98;;
21430;SDS011;10876;49.038;10.608;2023-02-08T09:27:02;19.67;;;9.63;;
21430;SDS011;10876;49.038;10.608;2023-02-08T09:29:28;19.92;;;8.93;;
21430;SDS011;10876;49.038;10.608;2023-02-08T09:31:56;20.00;;;9.43;;
21430;SDS011;10876;49.038;10.608;2023-02-08T09:34:23;21.60;;;10.18;;
21430;SDS011;10876;49.038;10.608;2023-02-08T09:36:50;23.17;;;10.77;;
21430;SDS011;10876;49.038;10.608;2023-02-08T09:39:18;21.52;;;9.80;;
21430;SDS011;10876;49.038;10.608;2023-02-08T09:44:30;19.10;;;8.60;;
21430;SDS011;10876;49.038;10.608;2023-02-08T09:46:58;21.42;;;9.82;;
21430;SDS011;10876;49.038;10.608;2023-02-08T09:49:27;19.98;;;9.95;;
21430;SDS011;10876;49.038;10.608;2023-02-08T09:51:56;18.63;;;9.35;;
21430;SDS011;10876;49.038;10.608;2023-02-08T09:54:27;21.63;;;9.77;;
21430;SDS011;10876;49.038;10.608;2023-02-08T09:56:56;19.33;;;9.48;;
21430;SDS011;10876;49.038;10.608;2023-02-08T09:59:25;20.42;;;8.85;;
21430;SDS011;10876;49.038;10.608;2023-02-08T10:01:55;20.60;;;9.40;;
21430;SDS011;10876;49.038;10.608;2023-02-08T10:04:24;16.83;;;8.50;;
21430;SDS011;10876;49.038;10.608;2023-02-08T10:06:53;18.48;;;8.80;;
21430;SDS011;10876;49.038;10.608;2023-02-08T10:09:21;18.90;;;9.25;;
21430;SDS011;10876;49.038;10.608;2023-02-08T10:11:52;19.58;;;9.40;;
21430;SDS011;10876;49.038;10.608;2023-02-08T10:14:25;17.90;;;7.90;;
21430;SDS011;10876;49.038;10.608;2023-02-08T10:17:04;18.10;;;8.65;;
21430;SDS011;10876;49.038;10.608;2023-02-08T10:19:38;17.88;;;8.60;;
21430;SDS011;10876;49.038;10.608;2023-02-08T10:22:11;18.08;;;8.35;;
21430;SDS011;10876;49.038;10.608;2023-02-08T10:24:49;17.35;;;8.45;;
21430;SDS011;10876;49.038;10.608;2023-02-08T10:27:21;15.70;;;8.27;;
21430;SDS011;10876;49.038;10.608;2023-02-08T10:29:59;19.02;;;8.85;;
21430;SDS011;10876;49.038;10.608;2023-02-08T10:32:38;15.90;;;7.60;;
21430;SDS011;10876;49.038;10.608;2023-02-08T10:35:08;17.45;;;9.15;;
21430;SDS011;10876;49.038;10.608;2023-02-08T10:37:37;15.93;;;8.13;;
21430;SDS011;10876;49.038;10.608;2023-02-08T10:40:12;19.25;;;8.32;;
21430;SDS011;10876;49.038;10.608;2023-02-08T10:42:41;15.77;;;7.80;;
21430;SDS011;10876;49.038;10.608;2023-02-08T10:45:14;14.77;;;7.75;;
21430;SDS011;10876;49.038;10.608;2023-02-08T10:47:45;14.98;;;6.80;;
21430;SDS011;10876;49.038;10.608;2023-02-08T10:50:15;15.27;;;8.05;;
21430;SDS011;10876;49.038;10.608;2023-02-08T10:52:44;13.15;;;6.60;;
21430;SDS011;10876;49.038;10.608;2023-02-08T10:55:12;14.20;;;6.72;;
21430;SDS011;10876;49.038;10.608;2023-02-08T10:57:40;17.70;;;7.68;;
21430;SDS011;10876;49.038;10.608;2023-02-08T11:00:09;16.95;;;8.07;;
21430;SDS011;10876;49.038;10.608;2023-02-08T11:02:38;16.15;;;7.25;;
21430;SDS011;10876;49.038;10.608;2023-02-08T11:05:08;15.50;;;7.38;;
21430;SDS011;10876;49.038;10.608;2023-02-08T11:07:35;15.63;;;6.65;;
21430;SDS011;10876;49.038;10.608;2023-02-08T11:10:20;11.20;;;6.32;;
21430;SDS011;10876;49.038;10.608;2023-02-08T11:12:52;11.82;;;5.72;;
21430;SDS011;10876;49.038;10.608;2023-02-08T11:15:20;13.82;;;5.47;;
21430;SDS011;10876;49.038;10.608;2023-02-08T11:17:51;6.22;;;3.85;;
21430;SDS011;10876;49.038;10.608;2023-02-08T11:20:21;15.50;;;6.32;;
21430;SDS011;10876;49.038;10.608;2023-02-08T11:22:51;15.63;;;5.38;;
21430;SDS011;10876;49.038;10.608;2023-02-08T11:25:29;16.05;;;5.95;;
21430;SDS011;10876;49.038;10.608;2023-02-08T11:27:57;5.88;;;3.03;;
21430;SDS011;10876;49.038;10.608;2023-02-08T11:30:24;13.05;;;6.00;;
21430;SDS011;10876;49.038;10.608;2023-02-08T11:35:34;10.45;;;5.78;;
21430;SDS011;10876;49.038;10.608;2023-02-08T11:38:02;9.13;;;4.25;;
21430;SDS011;10876;49.038;10.608;2023-02-08T11:40:30;13.95;;;4.57;;
21430;SDS011;10876;49.038;10.608;2023-02-08T11:42:57;11.25;;;4.95;;
21430;SDS011;10876;49.038;10.608;2023-02-08T11:45:25;9.75;;;4.97;;
21430;SDS011;10876;49.038;10.608;2023-02-08T11:47:54;12.70;;;4.63;;
21430;SDS011;10876;49.038;10.608;2023-02-08T11:50:22;12.15;;;6.43;;
21430;SDS011;10876;49.038;10.608;2023-02-08T11:52:53;7.95;;;4.13;;
21430;SDS011;10876;49.038;10.608;2023-02-08T11:55:21;9.30;;;4.68;;
21430;SDS011;10876;49.038;10.608;2023-02-08T11:57:50;8.95;;;4.10;;
21430;SDS011;10876;49.038;10.608;2023-02-08T12:00:18;13.23;;;6.25;;
21430;SDS011;10876;49.038;10.608;2023-02-08T12:02:47;11.57;;;5.90;;
21430;SDS011;10876;49.038;10.608;2023-02-08T12:05:15;3.20;;;2.58;;
21430;SDS011;10876;49.038;10.608;2023-02-08T12:07:58;5.70;;;3.53;;
21430;SDS011;10876;49.038;10.608;2023-02-08T12:10:41;11.68;;;4.22;;
21430;SDS011;10876;49.038;10.608;2023-02-08T12:13:22;11.55;;;5.78;;
21430;SDS011;10876;49.038;10.608;2023-02-08T12:15:54;11.88;;;5.55;;
21430;SDS011;10876;49.038;10.608;2023-02-08T12:18:31;11.88;;;5.45;;
21430;SDS011;10876;49.038;10.608;2023-02-08T12:21:03;12.02;;;5.30;;
21430;SDS011;10876;49.038;10.608;2023-02-08T12:23:36;9.00;;;3.80;;
21430;SDS011;10876;49.038;10.608;2023-02-08T12:26:11;13.40;;;5.88;;
21430;SDS011;10876;49.038;10.608;2023-02-08T12:28:43;12.38;;;5.53;;
21430;SDS011;10876;49.038;10.608;2023-02-08T12:31:12;7.80;;;4.53;;
21430;SDS011;10876;49.038;10.608;2023-02-08T12:33:43;11.25;;;5.05;;
21430;SDS011;10876;49.038;10.608;2023-02-08T12:36:30;7.75;;;4.57;;
21430;SDS011;10876;49.038;10.608;2023-02-08T12:39:04;11.60;;;5.47;;
21430;SDS011;10876;49.038;10.608;2023-02-08T12:41:56;11.48;;;4.57;;
21430;SDS011;10876;49.038;10.608;2023-02-08T12:44:28;10.18;;;4.63;;
21430;SDS011;10876;49.038;10.608;2023-02-08T12:46:59;10.18;;;4.90;;
21430;SDS011;10876;49.038;10.608;2023-02-08T12:49:31;6.07;;;3.17;;
21430;SDS011;10876;49.038;10.608;2023-02-08T12:52:02;11.48;;;4.85;;
21430;SDS011;10876;49.038;10.608;2023-02-08T12:54:34;10.05;;;4.82;;
21430;SDS011;10876;49.038;10.608;2023-02-08T12:57:02;4.50;;;2.50;;
21430;SDS011;10876;49.038;10.608;2023-02-08T12:59:32;10.70;;;4.43;;
21430;SDS011;10876;49.038;10.608;2023-02-08T13:02:01;13.65;;;5.57;;
21430;SDS011;10876;49.038;10.608;2023-02-08T13:04:30;14.18;;;5.05;;
21430;SDS011;10876;49.038;10.608;2023-02-08T13:06:59;10.80;;;4.85;;
21430;SDS011;10876;49.038;10.608;2023-02-08T13:09:32;4.03;;;2.15;;
21430;SDS011;10876;49.038;10.608;2023-02-08T13:12:03;10.13;;;4.90;;
21430;SDS011;10876;49.038;10.608;2023-02-08T13:14:32;6.53;;;4.22;;
21430;SDS011;10876;49.038;10.608;2023-02-08T13:17:02;8.32;;;4.20;;
21430;SDS011;10876;49.038;10.608;2023-02-08T13:19:30;10.82;;;3.08;;
21430;SDS011;10876;49.038;10.608;2023-02-08T13:21:58;4.60;;;2.20;;
21430;SDS011;10876;49.038;10.608;2023-02-08T13:24:30;11.32;;;4.93;;
21430;SDS011;10876;49.038;10.608;2023-02-08T13:26:58;9.30;;;5.38;;
21430;SDS011;10876;49.038;10.608;2023-02-08T13:29:26;9.52;;;3.97;;
21430;SDS011;10876;49.038;10.608;2023-02-08T13:31:55;9.57;;;5.28;;
21430;SDS011;10876;49.038;10.608;2023-02-08T13:34:25;12.15;;;4.45;;
21430;SDS011;10876;49.038;10.608;2023-02-08T13:36:54;9.20;;;4.15;;
21430;SDS011;10876;49.038;10.608;2023-02-08T13:39:30;9.82;;;4.65;;
21430;SDS011;10876;49.038;10.608;2023-02-08T13:41:58;7.40;;;3.72;;
21430;SDS011;10876;49.038;10.608;2023-02-08T13:44:27;13.43;;;4.95;;
21430;SDS011;10876;49.038;10.608;2023-02-08T13:46:55;12.35;;;5.18;;
21430;SDS011;10876;49.038;10.608;2023-02-08T13:49:42;14.05;;;5.75;;
21430;SDS011;10876;49.038;10.608;2023-02-08T13:52:09;13.48;;;6.05;;
21430;SDS011;10876;49.038;10.608;2023-02-08T13:54:36;10.85;;;5.57;;
21430;SDS011;10876;49.038;10.608;2023-02-08T13:57:03;11.88;;;5.78;;
21430;SDS011;10876;49.038;10.608;2023-02-08T13:59:33;14.77;;;6.00;;
21430;SDS011;10876;49.038;10.608;2023-02-08T14:04:56;15.30;;;6.10;;
21430;SDS011;10876;49.038;10.608;2023-02-08T14:07:32;14.80;;;5.97;;
21430;SDS011;10876;49.038;10.608;2023-02-08T14:10:09;4.63;;;2.55;;
21430;SDS011;10876;49.038;10.608;2023-02-08T14:12:41;13.90;;;5.88;;
21430;SDS011;10876;49.038;10.608;2023-02-08T14:15:24;13.48;;;6.30;;
21430;SDS011;10876;49.038;10.608;2023-02-08T14:17:52;10.38;;;5.95;;
21430;SDS011;10876;49.038;10.608;2023-02-08T14:20:20;13.60;;;5.97;;
21430;SDS011;10876;49.038;10.608;2023-02-08T14:22:50;11.98;;;5.97;;
21430;SDS011;10876;49.038;10.608;2023-02-08T14:25:18;13.02;;;6.10;;
21430;SDS011;10876;49.038;10.608;2023-02-08T14:27:48;15.73;;;6.07;;
21430;SDS011;10876;49.038;10.608;2023-02-08T14:30:19;12.57;;;6.22;;
21430;SDS011;10876;49.038;10.608;2023-02-08T14:32:48;15.90;;;6.13;;
21430;SDS011;10876;49.038;10.608;2023-02-08T14:35:16;18.60;;;6.32;;
21430;SDS011;10876;49.038;10.608;2023-02-08T14:37:45;15.65;;;5.97;;
21430;SDS011;10876;49.038;10.608;2023-02-08T14:43:00;14.30;;;5.95;;
21430;SDS011;10876;49.038;10.608;2023-02-08T14:45:27;12.65;;;6.35;;
21430;SDS011;10876;49.038;10.608;2023-02-08T14:48:00;11.40;;;6.25;;
21430;SDS011;10876;49.038;10.608;2023-02-08T14:53:25;11.73;;;5.18;;
21430;SDS011;10876;49.038;10.608;2023-02-08T14:55:54;11.38;;;5.38;;
21430;SDS011;10876;49.038;10.608;2023-02-08T14:58:26;9.45;;;4.80;;
21430;SDS011;10876;49.038;10.608;2023-02-08T15:00:54;12.52;;;5.63;;
21430;SDS011;10876;49.038;10.608;2023-02-08T15:03:23;18.60;;;6.05;;
21430;SDS011;10876;49.038;10.608;2023-02-08T15:06:14;10.18;;;5.20;;
21430;SDS011;10876;49.038;10.608;2023-02-08T15:08:47;9.43;;;4.28;;
21430;SDS011;10876;49.038;10.608;2023-02-08T15:11:21;9.85;;;5.15;;
21430;SDS011;10876;49.038;10.608;2023-02-08T15:13:49;9.52;;;4.85;;